createdAt,value
2022-12-28T00:00:24.448Z,0.00
2022-12-28T00:01:24.305Z,0.00
2022-12-28T00:02:24.370Z,0.00
2022-12-28T00:03:24.320Z,0.00
2022-12-28T00:04:24.267Z,0.00
2022-12-28T00:05:24.463Z,0.00
2022-12-28T00:06:24.226Z,0.00
2022-12-28T00:07:24.217Z,0.00
2022-12-28T00:08:24.208Z,0.00
2022-12-28T00:09:24.187Z,0.00
2022-12-28T00:11:08.392Z,0.00
2022-12-28T00:11:27.663Z,0.00
2022-12-28T00:12:25.163Z,0.00
2022-12-28T00:13:24.131Z,0.00
2022-12-28T00:14:24.117Z,0.00
2022-12-28T00:15:24.115Z,0.00
2022-12-28T00:16:24.156Z,0.00
2022-12-28T00:17:24.080Z,0.00
2022-12-28T00:18:24.074Z,0.00
2022-12-28T00:19:24.071Z,0.00
2022-12-28T00:20:24.036Z,0.00
2022-12-28T00:21:24.067Z,0.00
2022-12-28T00:22:24.023Z,0.00
2022-12-28T00:23:24.002Z,0.00
2022-12-28T00:24:23.990Z,0.00
2022-12-28T00:25:23.971Z,0.00
2022-12-28T00:26:23.974Z,0.00
2022-12-28T00:27:23.952Z,0.00
2022-12-28T00:28:23.934Z,0.00
2022-12-28T00:29:23.927Z,0.00
2022-12-28T00:30:23.911Z,0.00
2022-12-28T00:31:23.911Z,0.00
2022-12-28T00:32:23.880Z,0.00
2022-12-28T00:33:23.871Z,0.00
2022-12-28T00:34:23.857Z,0.00
2022-12-28T00:35:23.842Z,0.00
2022-12-28T00:36:23.843Z,0.00
2022-12-28T00:37:23.874Z,0.00
2022-12-28T00:38:23.803Z,0.00
2022-12-28T00:39:23.799Z,0.00
2022-12-28T00:40:24.349Z,0.00
2022-12-28T00:41:23.771Z,0.00
2022-12-28T00:42:23.751Z,0.00
2022-12-28T00:43:23.744Z,0.00
2022-12-28T00:44:23.739Z,0.00
2022-12-28T00:45:23.774Z,0.00
2022-12-28T00:46:23.700Z,0.00
2022-12-28T00:47:23.683Z,0.00
2022-12-28T00:48:23.675Z,0.00
2022-12-28T00:49:23.667Z,0.00
2022-12-28T00:50:23.654Z,0.00
2022-12-28T00:51:23.649Z,0.00
2022-12-28T00:52:23.623Z,0.00
2022-12-28T00:53:23.639Z,0.00
2022-12-28T00:54:23.593Z,0.00
2022-12-28T00:55:23.581Z,0.00
2022-12-28T00:56:23.565Z,0.00
2022-12-28T00:57:23.553Z,0.00
2022-12-28T00:58:23.544Z,0.00
2022-12-28T00:59:23.528Z,0.00
2022-12-28T01:00:23.566Z,0.00
2022-12-28T01:01:23.573Z,0.00
2022-12-28T01:02:23.493Z,0.00
2022-12-28T01:03:23.475Z,0.00
2022-12-28T01:04:23.462Z,0.00
2022-12-28T01:05:23.450Z,0.00
2022-12-28T01:06:23.440Z,0.00
2022-12-28T01:07:23.424Z,0.00
2022-12-28T01:08:23.411Z,0.00
2022-12-28T01:09:23.439Z,0.00
2022-12-28T01:10:23.590Z,0.00
2022-12-28T01:11:23.372Z,0.00
2022-12-28T01:12:23.361Z,0.00
2022-12-28T01:13:23.349Z,0.00
2022-12-28T01:14:23.332Z,0.00
2022-12-28T01:15:23.322Z,0.00
2022-12-28T01:16:23.385Z,0.00
2022-12-28T01:17:23.291Z,0.00
2022-12-28T01:18:23.279Z,0.00
2022-12-28T01:19:23.277Z,0.00
2022-12-28T01:20:23.252Z,0.00
2022-12-28T01:21:23.247Z,0.00
2022-12-28T01:22:23.231Z,0.00
2022-12-28T01:23:23.212Z,0.00
2022-12-28T01:24:23.196Z,0.00
2022-12-28T01:25:23.209Z,0.00
2022-12-28T01:26:23.179Z,0.00
2022-12-28T01:27:23.169Z,0.00
2022-12-28T01:28:23.145Z,0.00
2022-12-28T01:29:23.137Z,0.00
2022-12-28T01:30:23.137Z,0.00
2022-12-28T01:31:23.205Z,0.00
2022-12-28T01:32:23.105Z,0.00
2022-12-28T01:33:23.084Z,0.00
2022-12-28T01:34:23.067Z,0.00
2022-12-28T01:35:23.058Z,0.00
2022-12-28T01:36:23.049Z,0.00
2022-12-28T01:37:23.031Z,0.00
2022-12-28T01:38:23.023Z,0.00
2022-12-28T01:39:23.004Z,0.00
2022-12-28T01:40:22.995Z,0.00
2022-12-28T01:41:22.997Z,0.00
2022-12-28T01:42:22.974Z,0.00
2022-12-28T01:43:29.365Z,0.00
2022-12-28T01:44:22.936Z,0.00
2022-12-28T01:45:22.926Z,0.00
2022-12-28T01:46:22.912Z,0.00
2022-12-28T01:47:22.899Z,0.00
2022-12-28T01:48:22.895Z,0.00
2022-12-28T01:49:22.878Z,0.00
2022-12-28T01:50:22.864Z,0.00
2022-12-28T01:51:22.854Z,0.00
2022-12-28T01:52:22.836Z,0.00
2022-12-28T01:53:22.814Z,0.00
2022-12-28T01:54:22.813Z,0.00
2022-12-28T01:55:22.807Z,0.00
2022-12-28T01:56:22.780Z,0.00
2022-12-28T01:57:22.798Z,0.00
2022-12-28T01:58:22.761Z,0.00
2022-12-28T01:59:22.756Z,0.00
2022-12-28T02:00:22.734Z,0.00
2022-12-28T02:01:22.847Z,0.00
2022-12-28T02:02:22.921Z,0.00
2022-12-28T02:03:22.869Z,0.00
2022-12-28T02:04:22.683Z,0.00
2022-12-28T02:05:22.667Z,0.00
2022-12-28T02:06:22.655Z,0.00
2022-12-28T02:07:22.633Z,0.00
2022-12-28T02:08:22.621Z,0.00
2022-12-28T02:09:22.607Z,0.00
2022-12-28T02:10:42.474Z,0.00
2022-12-28T02:11:22.582Z,0.00
2022-12-28T02:12:22.572Z,0.00
2022-12-28T02:13:22.578Z,0.00
2022-12-28T02:14:22.541Z,0.00
2022-12-28T02:15:23.392Z,0.00
2022-12-28T02:16:22.577Z,0.00
2022-12-28T02:17:22.502Z,0.00
2022-12-28T02:18:22.496Z,0.00
2022-12-28T02:19:22.488Z,0.00
2022-12-28T02:20:22.467Z,0.00
2022-12-28T02:21:22.472Z,0.00
2022-12-28T02:22:22.436Z,0.00
2022-12-28T02:23:22.425Z,0.00
2022-12-28T02:24:22.430Z,0.00
2022-12-28T02:25:22.398Z,0.00
2022-12-28T02:26:22.383Z,0.00
2022-12-28T02:27:22.389Z,0.00
2022-12-28T02:28:22.362Z,0.00
2022-12-28T02:29:22.368Z,0.00
2022-12-28T02:30:22.332Z,0.00
2022-12-28T02:31:22.315Z,0.00
2022-12-28T02:32:22.311Z,0.00
2022-12-28T02:33:22.294Z,0.00
2022-12-28T02:34:22.338Z,0.00
2022-12-28T02:35:22.262Z,0.00
2022-12-28T02:36:22.250Z,0.00
2022-12-28T02:37:22.254Z,0.00
2022-12-28T02:38:22.229Z,0.00
2022-12-28T02:39:22.210Z,0.00
2022-12-28T02:40:22.204Z,0.00
2022-12-28T02:41:22.186Z,0.00
2022-12-28T02:42:22.177Z,0.00
2022-12-28T02:43:22.157Z,0.00
2022-12-28T02:44:22.149Z,0.00
2022-12-28T02:45:22.161Z,0.00
2022-12-28T02:46:22.140Z,0.00
2022-12-28T02:47:22.104Z,0.00
2022-12-28T02:48:22.095Z,0.00
2022-12-28T02:49:22.077Z,0.00
2022-12-28T02:50:22.069Z,0.00
2022-12-28T02:51:22.049Z,0.00
2022-12-28T02:52:22.038Z,0.00
2022-12-28T02:53:22.029Z,0.00
2022-12-28T02:54:22.014Z,0.00
2022-12-28T02:55:22.000Z,0.00
2022-12-28T02:56:21.999Z,0.00
2022-12-28T02:57:22.005Z,0.00
2022-12-28T02:58:21.965Z,0.00
2022-12-28T02:59:21.961Z,0.00
2022-12-28T03:00:21.939Z,0.00
2022-12-28T03:01:22.031Z,0.00
2022-12-28T03:02:22.088Z,0.00
2022-12-28T03:03:22.017Z,0.00
2022-12-28T03:04:21.882Z,0.00
2022-12-28T03:05:21.867Z,0.00
2022-12-28T03:06:26.927Z,0.00
2022-12-28T03:07:22.872Z,0.00
2022-12-28T03:08:21.830Z,0.00
2022-12-28T03:09:21.821Z,0.00
2022-12-28T03:10:21.800Z,0.00
2022-12-28T03:11:21.788Z,0.00
2022-12-28T03:12:21.774Z,0.00
2022-12-28T03:13:21.772Z,0.00
2022-12-28T03:14:21.754Z,0.00
2022-12-28T03:15:21.736Z,0.00
2022-12-28T03:16:21.829Z,0.00
2022-12-28T03:17:21.729Z,0.00
2022-12-28T03:18:21.694Z,0.00
2022-12-28T03:19:21.686Z,0.00
2022-12-28T03:20:21.676Z,0.00
2022-12-28T03:21:21.667Z,0.00
2022-12-28T03:22:21.639Z,0.00
2022-12-28T03:23:21.631Z,0.00
2022-12-28T03:24:21.635Z,0.00
2022-12-28T03:25:21.602Z,0.00
2022-12-28T03:26:21.608Z,0.00
2022-12-28T03:27:21.584Z,0.00
2022-12-28T03:28:21.560Z,0.00
2022-12-28T03:29:21.564Z,0.00
2022-12-28T03:30:21.547Z,0.00
2022-12-28T03:31:21.539Z,0.00
2022-12-28T03:32:21.507Z,0.00
2022-12-28T03:33:21.523Z,0.00
2022-12-28T03:34:21.486Z,0.00
2022-12-28T03:35:21.468Z,0.00
2022-12-28T03:36:21.453Z,0.00
2022-12-28T03:37:21.442Z,0.00
2022-12-28T03:38:21.429Z,0.00
2022-12-28T03:39:21.418Z,0.00
2022-12-28T03:40:21.603Z,0.00
2022-12-28T03:41:21.390Z,0.00
2022-12-28T03:42:21.383Z,0.00
2022-12-28T03:43:21.365Z,0.00
2022-12-28T03:44:21.349Z,0.00
2022-12-28T03:45:46.753Z,0.00
2022-12-28T03:46:22.432Z,0.00
2022-12-28T03:47:21.308Z,0.00
2022-12-28T03:48:21.310Z,0.00
2022-12-28T03:49:21.309Z,0.00
2022-12-28T03:50:21.283Z,0.00
2022-12-28T03:51:21.256Z,0.00
2022-12-28T03:52:21.250Z,0.00
2022-12-28T03:53:21.241Z,0.00
2022-12-28T03:54:21.221Z,0.00
2022-12-28T03:55:21.212Z,0.00
2022-12-28T03:56:21.195Z,0.00
2022-12-28T03:57:21.175Z,0.00
2022-12-28T03:58:21.173Z,0.00
2022-12-28T03:59:21.151Z,0.00
2022-12-28T04:00:21.146Z,0.00
2022-12-28T04:01:21.224Z,0.00
2022-12-28T04:02:21.393Z,0.00
2022-12-28T04:03:21.234Z,0.00
2022-12-28T04:04:21.091Z,0.00
2022-12-28T04:05:21.096Z,0.00
2022-12-28T04:06:21.082Z,0.00
2022-12-28T04:07:21.047Z,0.00
2022-12-28T04:08:21.035Z,0.00
2022-12-28T04:09:21.023Z,0.00
2022-12-28T04:10:21.041Z,0.00
2022-12-28T04:11:20.994Z,0.00
2022-12-28T04:12:20.980Z,0.00
2022-12-28T04:13:20.967Z,0.00
2022-12-28T04:14:20.950Z,0.00
2022-12-28T04:15:20.940Z,0.00
2022-12-28T04:16:20.991Z,0.00
2022-12-28T04:17:20.913Z,0.00
2022-12-28T04:18:20.907Z,0.00
2022-12-28T04:19:20.888Z,0.00
2022-12-28T04:20:20.872Z,0.00
2022-12-28T04:21:20.888Z,0.00
2022-12-28T04:22:20.848Z,0.00
2022-12-28T04:23:20.831Z,0.00
2022-12-28T04:24:20.823Z,0.00
2022-12-28T04:25:20.812Z,0.00
2022-12-28T04:26:20.809Z,0.00
2022-12-28T04:27:20.783Z,0.00
2022-12-28T04:28:20.764Z,0.00
2022-12-28T04:29:20.749Z,0.00
2022-12-28T04:30:20.740Z,0.00
2022-12-28T04:31:20.817Z,0.00
2022-12-28T04:32:20.724Z,0.00
2022-12-28T04:33:20.700Z,0.00
2022-12-28T04:34:20.686Z,0.00
2022-12-28T04:35:20.673Z,0.00
2022-12-28T04:36:20.662Z,0.00
2022-12-28T04:37:20.672Z,0.00
2022-12-28T04:38:20.639Z,0.00
2022-12-28T04:39:20.625Z,0.00
2022-12-28T04:40:20.608Z,0.00
2022-12-28T04:41:20.592Z,0.00
2022-12-28T04:42:20.581Z,0.00
2022-12-28T04:43:20.571Z,0.00
2022-12-28T04:44:20.553Z,0.00
2022-12-28T04:45:22.397Z,0.00
2022-12-28T04:46:20.566Z,0.00
2022-12-28T04:47:20.517Z,0.00
2022-12-28T04:48:20.500Z,0.00
2022-12-28T04:49:20.489Z,0.00
2022-12-28T04:50:20.477Z,0.00
2022-12-28T04:51:20.460Z,0.00
2022-12-28T04:52:20.449Z,0.00
2022-12-28T04:53:20.458Z,0.00
2022-12-28T04:54:20.421Z,0.00
2022-12-28T04:55:32.903Z,0.00
2022-12-28T04:56:21.421Z,0.00
2022-12-28T04:57:20.380Z,0.00
2022-12-28T04:58:20.369Z,0.00
2022-12-28T04:59:20.354Z,0.00
2022-12-28T05:00:20.340Z,0.00
2022-12-28T05:01:20.470Z,0.00
2022-12-28T05:02:20.416Z,0.00
2022-12-28T05:03:20.311Z,0.00
2022-12-28T05:04:20.294Z,0.00
2022-12-28T05:05:20.277Z,0.00
2022-12-28T05:06:20.260Z,0.00
2022-12-28T05:07:20.247Z,0.00
2022-12-28T05:08:20.235Z,0.00
2022-12-28T05:09:20.245Z,0.00
2022-12-28T05:10:20.212Z,0.00
2022-12-28T05:11:20.202Z,0.00
2022-12-28T05:12:20.188Z,0.00
2022-12-28T05:13:20.167Z,0.00
2022-12-28T05:14:20.158Z,0.00
2022-12-28T05:15:20.145Z,0.00
2022-12-28T05:16:20.228Z,0.00
2022-12-28T05:17:20.120Z,0.00
2022-12-28T05:18:20.103Z,0.00
2022-12-28T05:19:20.092Z,0.00
2022-12-28T05:20:20.079Z,0.00
2022-12-28T05:21:20.061Z,0.00
2022-12-28T05:22:20.049Z,0.00
2022-12-28T05:23:20.045Z,0.00
2022-12-28T05:24:20.028Z,0.00
2022-12-28T05:25:20.044Z,0.00
2022-12-28T05:26:19.999Z,0.00
2022-12-28T05:27:19.983Z,0.00
2022-12-28T05:28:19.971Z,0.00
2022-12-28T05:29:19.960Z,0.00
2022-12-28T05:30:19.958Z,0.00
2022-12-28T05:31:19.999Z,0.00
2022-12-28T05:32:19.917Z,0.00
2022-12-28T05:33:19.903Z,0.00
2022-12-28T05:34:19.889Z,0.00
2022-12-28T05:35:19.875Z,0.00
2022-12-28T05:36:19.861Z,0.00
2022-12-28T05:37:22.130Z,0.00
2022-12-28T05:38:19.854Z,0.00
2022-12-28T05:39:19.825Z,0.00
2022-12-28T05:40:19.810Z,0.00
2022-12-28T05:41:19.851Z,0.00
2022-12-28T05:42:19.790Z,0.00
2022-12-28T05:43:19.771Z,0.00
2022-12-28T05:44:19.760Z,0.00
2022-12-28T05:45:19.751Z,0.00
2022-12-28T05:46:19.806Z,0.00
2022-12-28T05:47:19.719Z,0.00
2022-12-28T05:48:19.703Z,0.00
2022-12-28T05:49:19.697Z,0.00
2022-12-28T05:50:19.676Z,0.00
2022-12-28T05:51:19.668Z,0.00
2022-12-28T05:52:19.679Z,0.00
2022-12-28T05:53:19.640Z,0.00
2022-12-28T05:54:19.627Z,0.00
2022-12-28T05:55:19.615Z,0.00
2022-12-28T05:56:19.597Z,0.00
2022-12-28T05:57:19.618Z,0.00
2022-12-28T05:58:19.572Z,0.00
2022-12-28T05:59:19.567Z,0.00
2022-12-28T06:00:19.545Z,0.00
2022-12-28T06:01:19.570Z,0.00
2022-12-28T06:02:24.529Z,0.00
2022-12-28T06:03:19.571Z,0.00
2022-12-28T06:04:19.493Z,0.00
2022-12-28T06:05:19.489Z,0.00
2022-12-28T06:06:19.466Z,0.00
2022-12-28T06:07:19.454Z,0.00
2022-12-28T06:08:22.648Z,0.00
2022-12-28T06:09:19.429Z,0.00
2022-12-28T06:10:19.415Z,0.00
2022-12-28T06:11:19.408Z,0.00
2022-12-28T06:12:19.395Z,0.00
2022-12-28T06:13:19.404Z,0.00
2022-12-28T06:14:19.363Z,0.00
2022-12-28T06:15:19.349Z,0.00
2022-12-28T06:16:19.335Z,0.00
2022-12-28T06:17:19.324Z,0.00
2022-12-28T06:18:19.308Z,0.00
2022-12-28T06:19:19.297Z,0.00
2022-12-28T06:20:19.281Z,0.00
2022-12-28T06:21:19.274Z,0.00
2022-12-28T06:22:19.256Z,0.00
2022-12-28T06:23:19.245Z,0.00
2022-12-28T06:24:19.231Z,0.00
2022-12-28T06:25:19.217Z,0.00
2022-12-28T06:26:19.206Z,0.00
2022-12-28T06:27:19.190Z,0.00
2022-12-28T06:28:19.190Z,0.00
2022-12-28T06:29:19.195Z,0.00
2022-12-28T06:30:19.182Z,0.00
2022-12-28T06:31:19.247Z,0.00
2022-12-28T06:32:19.125Z,0.00
2022-12-28T06:33:19.110Z,0.00
2022-12-28T06:34:19.097Z,0.00
2022-12-28T06:35:19.086Z,0.00
2022-12-28T06:36:20.597Z,0.00
2022-12-28T06:37:19.060Z,0.00
2022-12-28T06:38:19.046Z,0.00
2022-12-28T06:39:19.036Z,0.00
2022-12-28T06:40:21.890Z,0.00
2022-12-28T06:41:20.049Z,0.00
2022-12-28T06:42:18.995Z,4.00
2022-12-28T06:43:18.979Z,4.00
2022-12-28T06:44:18.967Z,0.00
2022-12-28T06:45:18.976Z,0.00
2022-12-28T06:46:18.953Z,4.00
2022-12-28T06:47:18.926Z,0.00
2022-12-28T06:48:18.919Z,4.00
2022-12-28T06:49:18.907Z,4.00
2022-12-28T06:50:18.887Z,8.00
2022-12-28T06:51:18.876Z,8.00
2022-12-28T06:52:18.863Z,8.00
2022-12-28T06:53:18.850Z,12.00
2022-12-28T06:54:18.837Z,12.00
2022-12-28T06:55:18.836Z,12.00
2022-12-28T06:56:18.824Z,16.00
2022-12-28T06:57:18.795Z,16.00
2022-12-28T06:58:18.781Z,20.00
2022-12-28T06:59:18.771Z,24.00
2022-12-28T07:00:18.758Z,28.00
2022-12-28T07:01:18.895Z,32.00
2022-12-28T07:02:18.848Z,40.00
2022-12-28T07:03:18.744Z,44.00
2022-12-28T07:04:18.705Z,52.00
2022-12-28T07:05:18.695Z,60.00
2022-12-28T07:06:18.675Z,68.00
2022-12-28T07:07:18.666Z,76.00
2022-12-28T07:08:18.655Z,88.00
2022-12-28T07:09:18.645Z,100.00
2022-12-28T07:10:18.623Z,108.00
2022-12-28T07:11:18.612Z,120.00
2022-12-28T07:12:18.595Z,128.00
2022-12-28T07:13:21.882Z,136.00
2022-12-28T07:14:19.594Z,152.00
2022-12-28T07:15:18.563Z,160.00
2022-12-28T07:16:18.594Z,168.00
2022-12-28T07:17:18.559Z,180.00
2022-12-28T07:18:18.518Z,196.00
2022-12-28T07:19:18.502Z,208.00
2022-12-28T07:20:18.487Z,232.00
2022-12-28T07:21:18.483Z,248.00
2022-12-28T07:22:18.474Z,264.00
2022-12-28T07:23:18.451Z,280.00
2022-12-28T07:24:18.437Z,292.00
2022-12-28T07:25:18.424Z,304.00
2022-12-28T07:26:18.413Z,320.00
2022-12-28T07:27:18.395Z,336.00
2022-12-28T07:28:18.384Z,352.00
2022-12-28T07:29:18.371Z,372.00
2022-12-28T07:30:18.360Z,396.00
2022-12-28T07:31:18.460Z,428.00
2022-12-28T07:32:18.331Z,468.00
2022-12-28T07:33:18.345Z,512.00
2022-12-28T07:34:18.308Z,580.00
2022-12-28T07:35:18.292Z,640.00
2022-12-28T07:36:18.288Z,696.00
2022-12-28T07:37:18.267Z,748.00
2022-12-28T07:38:21.541Z,792.00
2022-12-28T07:39:18.239Z,832.00
2022-12-28T07:40:18.224Z,868.00
2022-12-28T07:41:18.212Z,908.00
2022-12-28T07:42:18.193Z,944.00
2022-12-28T07:43:18.188Z,988.00
2022-12-28T07:44:18.169Z,1028.00
2022-12-28T07:45:18.159Z,1060.00
2022-12-28T07:46:18.213Z,1088.00
2022-12-28T07:47:18.136Z,1112.00
2022-12-28T07:48:18.132Z,1124.00
2022-12-28T07:49:18.125Z,1116.00
2022-12-28T07:50:18.091Z,1104.00
2022-12-28T07:51:18.082Z,1096.00
2022-12-28T07:52:18.066Z,1092.00
2022-12-28T07:53:22.073Z,1084.00
2022-12-28T07:54:18.048Z,1092.00
2022-12-28T07:55:18.024Z,1116.00
2022-12-28T07:56:18.018Z,1144.00
2022-12-28T07:57:18.001Z,1180.00
2022-12-28T07:58:17.989Z,1224.00
2022-12-28T07:59:17.990Z,1288.00
2022-12-28T08:00:17.957Z,1328.00
2022-12-28T08:01:18.176Z,1348.00
2022-12-28T08:02:18.105Z,1376.00
2022-12-28T08:03:17.991Z,1420.00
2022-12-28T08:04:17.913Z,1456.00
2022-12-28T08:05:17.953Z,1480.00
2022-12-28T08:06:17.884Z,1504.00
2022-12-28T08:07:17.871Z,1532.00
2022-12-28T08:08:17.852Z,1572.00
2022-12-28T08:09:17.866Z,1612.00
2022-12-28T08:10:17.829Z,1648.00
2022-12-28T08:11:17.820Z,1680.00
2022-12-28T08:12:17.799Z,1720.00
2022-12-28T08:13:17.794Z,1744.00
2022-12-28T08:14:17.784Z,1764.00
2022-12-28T08:15:17.772Z,1784.00
2022-12-28T08:16:17.805Z,1800.00
2022-12-28T08:17:21.193Z,1824.00
2022-12-28T08:18:17.733Z,1856.00
2022-12-28T08:19:17.731Z,1908.00
2022-12-28T08:20:17.711Z,1956.00
2022-12-28T08:21:17.743Z,2000.00
2022-12-28T08:22:17.683Z,2068.00
2022-12-28T08:23:17.669Z,2136.00
2022-12-28T08:24:17.706Z,2196.00
2022-12-28T08:25:17.655Z,2244.00
2022-12-28T08:26:17.636Z,2284.00
2022-12-28T08:27:17.626Z,2308.00
2022-12-28T08:28:17.600Z,2288.00
2022-12-28T08:29:17.577Z,2248.00
2022-12-28T08:30:17.595Z,2224.00
2022-12-28T08:31:17.616Z,2200.00
2022-12-28T08:32:17.549Z,2176.00
2022-12-28T08:33:17.536Z,2152.00
2022-12-28T08:34:17.525Z,2156.00
2022-12-28T08:35:17.510Z,2172.00
2022-12-28T08:36:17.499Z,2212.00
2022-12-28T08:37:17.505Z,2268.00
2022-12-28T08:38:17.461Z,2348.00
2022-12-28T08:39:17.450Z,2408.00
2022-12-28T08:40:17.440Z,2488.00
2022-12-28T08:41:17.422Z,2564.00
2022-12-28T08:42:17.415Z,2656.00
2022-12-28T08:43:17.404Z,2736.00
2022-12-28T08:44:17.390Z,2800.00
2022-12-28T08:45:17.379Z,2840.00
2022-12-28T08:46:17.541Z,2864.00
2022-12-28T08:47:17.433Z,2892.00
2022-12-28T08:48:17.330Z,2916.00
2022-12-28T08:49:17.317Z,2952.00
2022-12-28T08:50:20.039Z,3004.00
2022-12-28T08:51:17.287Z,3092.00
2022-12-28T08:52:17.282Z,3184.00
2022-12-28T08:53:17.292Z,3292.00
2022-12-28T08:54:17.252Z,3396.00
2022-12-28T08:55:17.240Z,3524.00
2022-12-28T08:56:17.223Z,3656.00
2022-12-28T08:57:17.205Z,3780.00
2022-12-28T08:58:17.192Z,3900.00
2022-12-28T08:59:17.184Z,4020.00
2022-12-28T09:00:17.178Z,4132.00
2022-12-28T09:01:17.315Z,4220.00
2022-12-28T09:02:17.293Z,4296.00
2022-12-28T09:03:17.293Z,4356.00
2022-12-28T09:04:17.157Z,4400.00
2022-12-28T09:05:17.097Z,4420.00
2022-12-28T09:06:17.087Z,4428.00
2022-12-28T09:07:17.072Z,4432.00
2022-12-28T09:08:17.055Z,4464.00
2022-12-28T09:09:17.077Z,4508.00
2022-12-28T09:10:17.053Z,4548.00
2022-12-28T09:11:17.018Z,4592.00
2022-12-28T09:12:17.005Z,4652.00
2022-12-28T09:13:16.998Z,4692.00
2022-12-28T09:14:24.433Z,4732.00
2022-12-28T09:15:18.005Z,4784.00
2022-12-28T09:16:17.012Z,4836.00
2022-12-28T09:17:16.945Z,4868.00
2022-12-28T09:18:16.923Z,4880.00
2022-12-28T09:19:16.921Z,4876.00
2022-12-28T09:20:16.897Z,4864.00
2022-12-28T09:21:16.887Z,4856.00
2022-12-28T09:22:16.870Z,4856.00
2022-12-28T09:23:16.860Z,4864.00
2022-12-28T09:24:16.895Z,4884.00
2022-12-28T09:25:16.860Z,4912.00
2022-12-28T09:26:16.821Z,4920.00
2022-12-28T09:27:16.808Z,4928.00
2022-12-28T09:28:16.797Z,4932.00
2022-12-28T09:29:16.782Z,4932.00
2022-12-28T09:30:16.771Z,4928.00
2022-12-28T09:31:16.790Z,4948.00
2022-12-28T09:32:16.738Z,5000.00
2022-12-28T09:33:16.732Z,5084.00
2022-12-28T09:34:36.076Z,5200.00
2022-12-28T09:35:17.723Z,5292.00
2022-12-28T09:36:16.687Z,5356.00
2022-12-28T09:37:16.679Z,5392.00
2022-12-28T09:38:16.659Z,5404.00
2022-12-28T09:39:16.739Z,5400.00
2022-12-28T09:40:16.635Z,5380.00
2022-12-28T09:41:16.643Z,5372.00
2022-12-28T09:42:16.635Z,5344.00
2022-12-28T09:43:16.601Z,5312.00
2022-12-28T09:44:16.578Z,5296.00
2022-12-28T09:45:16.579Z,5284.00
2022-12-28T09:46:16.579Z,5264.00
2022-12-28T09:47:16.549Z,5224.00
2022-12-28T09:48:16.536Z,5208.00
2022-12-28T09:49:16.513Z,5184.00
2022-12-28T09:50:16.535Z,5176.00
2022-12-28T09:51:16.488Z,5184.00
2022-12-28T09:52:16.470Z,5192.00
2022-12-28T09:53:16.461Z,5216.00
2022-12-28T09:54:16.452Z,5248.00
2022-12-28T09:55:16.432Z,5300.00
2022-12-28T09:56:16.430Z,5340.00
2022-12-28T09:57:16.448Z,5340.00
2022-12-28T09:58:16.410Z,5276.00
2022-12-28T09:59:16.588Z,5208.00
2022-12-28T10:00:16.967Z,5168.00
2022-12-28T10:01:16.455Z,5160.00
2022-12-28T10:02:16.417Z,5164.00
2022-12-28T10:03:16.372Z,5156.00
2022-12-28T10:04:16.312Z,5168.00
2022-12-28T10:05:16.304Z,5164.00
2022-12-28T10:06:16.302Z,5164.00
2022-12-28T10:07:16.274Z,5200.00
2022-12-28T10:08:16.269Z,5256.00
2022-12-28T10:09:16.248Z,5316.00
2022-12-28T10:10:16.235Z,5372.00
2022-12-28T10:11:16.223Z,5472.00
2022-12-28T10:12:16.215Z,5580.00
2022-12-28T10:13:45.659Z,5652.00
2022-12-28T10:14:17.202Z,5724.00
2022-12-28T10:15:16.176Z,5728.00
2022-12-28T10:16:16.204Z,5700.00
2022-12-28T10:17:16.143Z,5740.00
2022-12-28T10:18:16.132Z,5952.00
2022-12-28T10:19:16.143Z,6144.00
2022-12-28T10:20:16.105Z,6292.00
2022-12-28T10:21:16.094Z,6288.00
2022-12-28T10:22:16.079Z,6152.00
2022-12-28T10:23:16.067Z,6268.00
2022-12-28T10:24:32.679Z,6624.00
2022-12-28T10:25:17.129Z,6904.00
2022-12-28T10:26:16.027Z,7152.00
2022-12-28T10:27:16.028Z,7440.00
2022-12-28T10:28:15.999Z,7652.00
2022-12-28T10:29:16.003Z,7760.00
2022-12-28T10:30:15.978Z,7680.00
2022-12-28T10:31:16.029Z,7380.00
2022-12-28T10:32:15.943Z,7156.00
2022-12-28T10:33:15.946Z,7112.00
2022-12-28T10:34:15.937Z,7424.00
2022-12-28T10:35:15.914Z,8112.00
2022-12-28T10:36:16.164Z,8636.00
2022-12-28T10:37:16.004Z,8832.00
2022-12-28T10:38:15.867Z,9076.00
2022-12-28T10:39:15.852Z,9180.00
2022-12-28T10:40:15.864Z,9028.00
2022-12-28T10:41:15.848Z,8780.00
2022-12-28T10:42:15.815Z,8644.00
2022-12-28T10:43:15.803Z,8444.00
2022-12-28T10:44:39.453Z,8304.00
2022-12-28T10:45:16.906Z,8312.00
2022-12-28T10:46:15.789Z,8324.00
2022-12-28T10:47:15.743Z,8152.00
2022-12-28T10:48:16.016Z,8104.00
2022-12-28T10:49:15.998Z,7884.00
2022-12-28T10:51:15.693Z,7648.00
2022-12-28T10:52:15.689Z,7552.00
2022-12-28T10:53:15.676Z,7572.00
2022-12-28T10:54:15.650Z,7536.00
2022-12-28T10:55:16.657Z,7528.00
2022-12-28T10:56:17.437Z,7528.00
2022-12-28T10:57:15.614Z,7556.00
2022-12-28T10:58:33.372Z,7564.00
2022-12-28T10:59:16.607Z,7628.00
2022-12-28T11:00:15.573Z,7532.00
2022-12-28T11:01:15.801Z,7548.00
2022-12-28T11:02:15.741Z,7636.00
2022-12-28T11:03:15.601Z,7444.00
2022-12-28T11:04:15.530Z,7732.00
2022-12-28T11:05:15.502Z,7772.00
2022-12-28T11:06:15.490Z,7900.00
2022-12-28T11:07:15.473Z,8052.00
2022-12-28T11:08:15.472Z,8160.00
2022-12-28T11:09:15.472Z,8320.00
2022-12-28T11:10:15.460Z,8448.00
2022-12-28T11:11:15.419Z,8576.00
2022-12-28T11:12:15.408Z,8820.00
2022-12-28T11:13:21.445Z,9024.00
2022-12-28T11:14:16.407Z,9112.00
2022-12-28T11:15:15.383Z,9072.00
2022-12-28T11:16:15.394Z,9028.00
2022-12-28T11:17:15.388Z,8900.00
2022-12-28T11:18:15.331Z,8844.00
2022-12-28T11:19:15.315Z,8792.00
2022-12-28T11:20:15.317Z,8812.00
2022-12-28T11:21:15.304Z,8812.00
2022-12-28T11:22:15.281Z,8984.00
2022-12-28T11:23:15.263Z,9116.00
2022-12-28T11:24:15.261Z,9292.00
2022-12-28T11:25:15.236Z,9156.00
2022-12-28T11:26:15.228Z,8988.00
2022-12-28T11:27:15.227Z,8824.00
2022-12-28T11:28:15.200Z,8752.00
2022-12-28T11:29:15.196Z,8776.00
2022-12-28T11:30:17.649Z,8688.00
2022-12-28T11:31:15.181Z,8576.00
2022-12-28T11:32:15.145Z,8560.00
2022-12-28T11:33:15.148Z,8508.00
2022-12-28T11:34:15.124Z,8328.00
2022-12-28T11:35:15.108Z,8148.00
2022-12-28T11:36:15.090Z,7916.00
2022-12-28T11:37:15.081Z,7732.00
2022-12-28T11:38:15.061Z,7724.00
2022-12-28T11:39:15.048Z,8028.00
2022-12-28T11:40:15.046Z,8500.00
2022-12-28T11:41:15.018Z,9204.00
2022-12-28T11:42:40.413Z,9600.00
2022-12-28T11:43:16.016Z,9824.00
2022-12-28T11:44:14.981Z,9268.00
2022-12-28T11:45:14.962Z,8972.00
2022-12-28T11:46:14.970Z,10180.00
2022-12-28T11:47:14.980Z,9972.00
2022-12-28T11:48:14.973Z,12144.00
2022-12-28T11:49:14.931Z,13696.00
2022-12-28T11:50:14.975Z,7984.00
2022-12-28T11:51:14.885Z,7272.00
2022-12-28T11:52:14.871Z,6872.00
2022-12-28T11:53:14.859Z,6476.00
2022-12-28T11:54:14.890Z,6044.00
2022-12-28T11:55:14.914Z,6088.00
2022-12-28T11:56:14.867Z,6252.00
2022-12-28T11:57:14.865Z,8020.00
2022-12-28T11:58:14.845Z,8296.00
2022-12-28T11:59:14.831Z,5796.00
2022-12-28T12:00:20.099Z,5400.00
2022-12-28T12:01:16.268Z,6964.00
2022-12-28T12:02:14.764Z,5936.00
2022-12-28T12:03:14.829Z,5404.00
2022-12-28T12:04:14.764Z,4564.00
2022-12-28T12:05:14.774Z,5124.00
2022-12-28T12:06:14.732Z,4760.00
2022-12-28T12:07:14.744Z,6636.00
2022-12-28T12:08:14.732Z,5556.00
2022-12-28T12:09:14.693Z,6224.00
2022-12-28T12:10:14.777Z,6260.00
2022-12-28T12:11:14.703Z,5912.00
2022-12-28T12:12:17.946Z,4680.00
2022-12-28T12:13:14.649Z,4784.00
2022-12-28T12:14:14.622Z,4492.00
2022-12-28T12:15:14.612Z,4256.00
2022-12-28T12:16:14.677Z,4344.00
2022-12-28T12:17:14.591Z,4568.00
2022-12-28T12:18:14.606Z,4864.00
2022-12-28T12:19:14.560Z,4788.00
2022-12-28T12:20:14.567Z,5476.00
2022-12-28T12:21:16.118Z,6644.00
2022-12-28T12:22:14.537Z,5016.00
2022-12-28T12:23:14.455Z,5216.00
2022-12-28T12:24:14.443Z,5776.00
2022-12-28T12:25:14.430Z,6188.00
2022-12-28T12:26:14.417Z,7148.00
2022-12-28T12:27:14.402Z,12472.00
2022-12-28T12:28:14.390Z,8396.00
2022-12-28T12:29:14.375Z,9012.00
2022-12-28T12:30:14.366Z,11824.00
2022-12-28T12:31:14.406Z,13536.00
2022-12-28T12:32:14.343Z,9720.00
2022-12-28T12:33:14.321Z,9192.00
2022-12-28T12:34:19.293Z,8212.00
2022-12-28T12:35:14.328Z,7484.00
2022-12-28T12:36:14.339Z,7744.00
2022-12-28T12:37:14.297Z,7608.00
2022-12-28T12:38:14.267Z,10940.00
2022-12-28T12:39:14.244Z,16288.00
2022-12-28T12:40:14.236Z,17824.00
2022-12-28T12:41:14.217Z,14528.00
2022-12-28T12:42:14.211Z,11408.00
2022-12-28T12:43:14.195Z,10604.00
2022-12-28T12:44:14.198Z,10832.00
2022-12-28T12:45:14.184Z,11108.00